Snodland, United Kingdom
Current Conditions -  °F | °C
As of 6:50 PM on Monday 20 Oct 2014 (Local Time) from EGKB Reporting Station
Few Clouds Few Clouds  
Wind Chill: 55°   Ceiling: Unl
Heat Index: 55°   Visibility: 6mi
Dew Point: 48°   Wind: 9mph
Humidity: 77%   Direction: 210°SSW
Pressure: 29.94"   Gusts: NA
Location:  51.33°N, 0.44°E
Report Text: EGKB 201750Z 21008KT 9999 FEW025 13/09 Q1014
Loading
Personal Weather Stations






























Interactive Weather Map
Tropical Storm Tracking
New forecast layout! Learn more

10-Day Weather Forecast

Advertisements
Track Severe Weather on mobile